Flight Track Log - Related Links

Times and Time Zones

All times are in EDT time to prevent confusion due to time zone crossing. See the N3747T flight status page for this flight to view local times or setup timezone preferences in your user account.

Time Position Orientation Groundspeed Altitude Reporting Facility
EDT Latitude Longitude Course Direction KTS MPH feet Rate Location/Type
Mon 04:06:13 PM 26.5094 -81.9178 157° South 117 135 3,100  Level Miami Center
Mon 04:07:14 PM 26.4978 -81.8797 109° East 133 153 4,100 780 Climbing Miami Center
Mon 04:08:16 PM 26.4800 -81.8408 117° Southeast 132 152 4,700 387 Climbing Miami Center
Mon 04:09:18 PM 26.4631 -81.7975 114° Southeast 157 181 4,900 97 Climbing Miami Center
Mon 04:10:00 PM 26.5340 -81.5836 138° Southeast  Level Estimated
Mon 04:10:20 PM 26.4419 -81.7464 115° Southeast 166 191 4,900  Level Miami Center
Mon 04:11:00 PM 26.4949 -81.5648 157° South  Level FlightAware Approximate
Mon 04:11:21 PM 26.4228 -81.6989 114° Southeast 170 196 4,900  Level Miami Center
Mon 04:12:23 PM 26.4017 -81.6481 115° Southeast 170 196 4,900  Level Miami Center
Mon 04:13:25 PM 26.3903 -81.5983 104° East 169 194 4,900  Level Miami Center
Mon 04:14:27 PM 26.3750 -81.5447 108° East 170 196 4,900  Level Miami Center
Mon 04:15:29 PM 26.3600 -81.4953 109° East 169 194 4,900  Level Miami Center
Mon 04:16:30 PM 26.3483 -81.4394 103° East 172 198 4,900  Level Miami Center
Mon 04:17:32 PM 26.3386 -81.3875 102° East 173 199 4,900  Level Miami Center
Mon 04:18:34 PM 26.3244 -81.3322 106° East 173 199 4,900  Level Miami Center
Mon 04:19:36 PM 26.3125 -81.2806 104° East 175 201 4,900  Level Miami Center
Mon 04:20:38 PM 26.3042 -81.2242 99° East 175 201 4,900  Level Miami Center
Mon 04:21:40 PM 26.3006 -81.1722 94° East 172 198 4,900  Level Miami Center
Mon 04:22:42 PM 26.3025 -81.1156 88° East 172 198 4,900  Level Miami Center
Mon 04:23:43 PM 26.3117 -81.0633 79° East 173 199 4,900  Level Miami Center
Mon 04:24:45 PM 26.3161 -81.0114 85° East 159 183 4,900  Level Miami Center
Mon 04:25:47 PM 26.3106 -80.9578 97° East 162 186 4,900  Level Miami Center
Mon 04:26:38 PM 26.3061 -80.9156 97° East 163 188 4,900  Level Miami Center
Mon 04:26:48 PM 26.3056 -80.9075 94° East 163 188 4,900 -83 Level Miami Center
Mon 04:27:50 PM 26.3019 -80.8550 94° East 168 193 4,800 -305 Descending Miami Center
Mon 04:28:46 PM 26.2972 -80.7964 95° East 197 227 4,300 -513 Descending Miami Center
Mon 04:29:47 PM 26.2928 -80.7356 95° East 195 224 3,800 -492 Descending Miami Center
Mon 04:30:48 PM 26.2886 -80.6747 94° East 194 223 3,300 -466 Descending Miami Center
Mon 04:31:43 PM 26.2836 -80.6208 96° East 189 217 2,900 -522 Descending Miami Center
Mon 04:31:57 PM 26.2836 -80.6083 90° East 188 216 2,700 -492 Descending Miami Center
Mon 04:32:44 PM 26.2811 -80.5650 94° East 184 212 2,400 -387 Descending Miami Center
Mon 04:32:59 PM 26.2797 -80.5514 96° East 187 215 2,300 -269 Descending Miami Center
Mon 04:33:51 PM 26.2767 -80.5019 94° East 179 206 2,100 -290 Descending Miami Center
Mon 04:34:01 PM 26.2753 -80.4919 99° East 182 209 2,000 -197 Descending Miami Center
Mon 04:34:52 PM 26.2719 -80.4458 95° East 182 209 1,900 -97 Descending Miami Center
Mon 04:35:03 PM 26.2717 -80.4372 92° East 181 208 1,900 -194 Level Miami Center
Mon 04:35:54 PM 26.2669 -80.3919 97° East 180 207 1,700 -290 Descending Miami Center
Mon 04:36:05 PM 26.2678 -80.3811 85° East 181 208 1,600 -295 Descending Miami Center
Mon 04:36:55 PM 26.2642 -80.3358 95° East 152 175 1,400 -194 Descending Miami Center
Mon 04:37:07 PM 26.2631 -80.3250 97° East 169 194 1,400  Level Miami Center
Mon 04:37:56 PM 26.2608 -80.2914 94° East 143 165 1,400  Level Miami Center
Mon 04:38:09 PM 26.2606 -80.2808 92° East 146 168 1,400  Level Miami Center
Mon 04:38:51 PM 26.2633 -80.2522 84° East 139 160 1,400  Level Miami Center
Mon 04:39:10 PM 26.2669 -80.2347 77° East 142 163 1,400  Level Miami Center
Mon 04:39:58 PM 26.2683 -80.2039 87° East 137 158 1,400 -194 Level Miami Center
Mon 04:40:12 PM 26.2697 -80.1922 82° East 142 163 1,200 -395 Descending Miami Center
Mon 04:41:14 PM 26.2542 -80.1514 113° Southeast 146 168 900 -500 Descending Miami Center
Mon 04:42:00 PM 26.2458 -80.1300 113° Southeast 84 97 300 -783 Descending Miami Center

Login

Don't have an account? Register now (free) for customized features, flight alerts, and more!